createdAt,value
2023-01-11T00:04:03.695Z,11.00
2023-01-11T00:09:05.889Z,10.97
2023-01-11T00:14:07.946Z,10.79
2023-01-11T00:19:10.030Z,10.45
2023-01-11T00:24:12.157Z,10.26
2023-01-11T00:29:14.253Z,10.40
2023-01-11T00:34:16.317Z,10.35
2023-01-11T00:39:18.619Z,10.53
2023-01-11T00:44:39.348Z,10.50
2023-01-11T00:49:42.233Z,10.48
2023-01-11T00:54:44.381Z,10.15
2023-01-11T00:59:47.089Z,10.30
2023-01-11T01:04:49.274Z,10.46
2023-01-11T01:09:51.531Z,10.36
2023-01-11T01:14:53.611Z,10.39
2023-01-11T01:19:55.788Z,10.38
2023-01-11T01:24:57.844Z,10.32
2023-01-11T01:29:59.934Z,10.19
2023-01-11T01:35:02.235Z,10.39
2023-01-11T01:40:05.387Z,10.32
2023-01-11T01:45:27.894Z,10.50
2023-01-11T01:50:37.518Z,10.53
2023-01-11T01:55:45.155Z,10.51
2023-01-11T02:00:47.505Z,10.31
2023-01-11T02:05:52.262Z,10.36
2023-01-11T02:10:55.552Z,10.53
2023-01-11T02:16:09.957Z,10.37
2023-01-11T02:21:32.937Z,10.46
2023-01-11T02:26:59.249Z,10.45
2023-01-11T02:32:11.988Z,10.36
2023-01-11T02:37:25.272Z,10.49
2023-01-11T02:43:04.616Z,9.83
2023-01-11T02:48:32.120Z,10.33
2023-01-11T02:53:49.100Z,10.32
2023-01-11T02:58:53.440Z,10.06
2023-01-11T03:03:56.453Z,10.33
2023-01-11T03:09:07.680Z,10.33
2023-01-11T03:14:21.707Z,10.40
2023-01-11T03:19:55.977Z,10.39
2023-01-11T03:25:38.417Z,10.27
2023-01-11T03:31:20.605Z,9.94
2023-01-11T03:36:30.627Z,10.13
2023-01-11T03:41:38.621Z,10.49
2023-01-11T03:46:47.569Z,10.53
2023-01-11T03:51:51.544Z,10.75
2023-01-11T03:57:33.016Z,10.87
2023-01-11T04:02:39.509Z,10.85
2023-01-11T04:07:41.751Z,10.98
2023-01-11T04:12:47.356Z,10.93
2023-01-11T04:17:49.480Z,10.63
2023-01-11T04:22:51.631Z,10.54
2023-01-11T04:27:53.721Z,10.54
2023-01-11T04:32:58.932Z,10.12
2023-01-11T04:38:01.114Z,9.95
2023-01-11T04:43:03.426Z,9.87
2023-01-11T04:48:05.955Z,9.86
2023-01-11T04:53:08.103Z,9.82
2023-01-11T04:58:10.369Z,9.54
2023-01-11T05:03:12.527Z,9.48
2023-01-11T05:08:14.619Z,9.97
2023-01-11T05:13:16.939Z,9.98
2023-01-11T05:18:19.110Z,9.80
2023-01-11T05:23:21.251Z,9.69
2023-01-11T05:28:23.329Z,9.44
2023-01-11T05:33:25.670Z,9.12
2023-01-11T05:38:28.418Z,9.36
2023-01-11T05:43:31.659Z,9.48
2023-01-11T05:48:33.827Z,9.22
2023-01-11T05:53:35.974Z,9.48
2023-01-11T05:58:38.280Z,9.29
2023-01-11T06:03:40.625Z,9.54
2023-01-11T06:08:42.837Z,9.45
2023-01-11T06:13:44.973Z,9.44
2023-01-11T06:18:49.425Z,9.57
2023-01-11T06:23:52.029Z,9.33
2023-01-11T06:28:54.252Z,9.41
2023-01-11T06:33:56.426Z,8.97
2023-01-11T06:38:59.278Z,9.79
2023-01-11T06:44:01.476Z,9.79
2023-01-11T06:49:03.832Z,9.13
2023-01-11T06:54:06.160Z,9.33
2023-01-11T06:59:08.356Z,9.28
2023-01-11T07:04:10.654Z,10.07
2023-01-11T07:09:12.921Z,9.70
2023-01-11T07:14:15.490Z,10.15
2023-01-11T07:19:18.506Z,10.28
2023-01-11T07:24:20.770Z,10.24
2023-01-11T07:29:23.018Z,10.41
2023-01-11T07:34:25.779Z,10.60
2023-01-11T07:39:42.129Z,10.73
2023-01-11T07:44:45.176Z,10.85
2023-01-11T07:49:47.243Z,10.84
2023-01-11T07:54:49.379Z,11.02
2023-01-11T07:59:51.599Z,11.00
2023-01-11T08:04:53.771Z,11.12
2023-01-11T08:09:56.035Z,11.57
2023-01-11T08:14:58.124Z,11.84
2023-01-11T08:20:00.250Z,12.04
2023-01-11T08:25:02.353Z,12.10
2023-01-11T08:30:04.901Z,11.91
2023-01-11T08:35:07.684Z,11.70
2023-01-11T08:40:10.344Z,12.04
2023-01-11T08:45:12.628Z,11.66
2023-01-11T08:50:17.873Z,11.82
2023-01-11T08:55:20.684Z,12.30
2023-01-11T09:00:22.909Z,12.58
2023-01-11T09:05:25.143Z,12.57
2023-01-11T09:10:27.583Z,12.87
2023-01-11T09:15:30.109Z,13.10
2023-01-11T09:20:32.219Z,13.03
2023-01-11T09:25:34.505Z,13.15
2023-01-11T09:30:39.265Z,13.50
2023-01-11T09:35:42.978Z,13.78
2023-01-11T09:41:19.840Z,13.87
2023-01-11T09:46:23.332Z,14.03
2023-01-11T09:51:33.812Z,14.00
2023-01-11T09:56:46.687Z,13.97
2023-01-11T10:02:12.499Z,14.07
2023-01-11T10:07:43.835Z,13.93
2023-01-11T10:18:48.836Z,14.63
2023-01-11T10:23:53.922Z,14.82
2023-01-11T10:29:17.790Z,14.57
2023-01-11T10:34:56.559Z,15.04
2023-01-11T10:40:01.648Z,15.20
2023-01-11T10:45:17.069Z,14.98
2023-01-11T10:50:47.315Z,15.17
2023-01-11T10:56:03.812Z,15.06
2023-01-11T11:01:12.852Z,15.09
2023-01-11T11:06:35.764Z,15.02
2023-01-11T11:11:53.364Z,15.04
2023-01-11T11:17:25.125Z,15.34
2023-01-11T11:22:27.720Z,15.37
2023-01-11T11:27:39.640Z,15.32
2023-01-11T11:32:52.029Z,15.51
2023-01-11T11:37:55.732Z,15.25
2023-01-11T11:43:19.467Z,15.15
2023-01-11T11:48:22.555Z,15.16
2023-01-11T11:53:31.100Z,15.42
2023-01-11T11:58:33.390Z,15.45
2023-01-11T12:03:35.649Z,15.30
2023-01-11T12:08:37.911Z,15.48
2023-01-11T12:13:42.676Z,15.71
2023-01-11T12:18:45.038Z,15.58
2023-01-11T12:23:47.988Z,15.39
2023-01-11T12:29:14.447Z,15.54
2023-01-11T12:34:16.583Z,15.34
2023-01-11T12:39:18.713Z,15.32
2023-01-11T12:44:36.258Z,15.13
2023-01-11T12:50:01.005Z,15.27
2023-01-11T12:55:03.124Z,15.50
2023-01-11T13:00:27.239Z,15.44
2023-01-11T13:05:38.997Z,15.94
2023-01-11T13:10:43.877Z,16.14
2023-01-11T13:15:54.114Z,16.23
2023-01-11T13:21:26.270Z,16.31
2023-01-11T13:26:39.579Z,16.46
2023-01-11T13:31:45.045Z,16.31
2023-01-11T13:36:56.335Z,15.93
2023-01-11T13:42:11.107Z,16.14
2023-01-11T13:47:33.360Z,16.02
2023-01-11T13:52:45.658Z,16.01
2023-01-11T13:57:58.814Z,15.86
2023-01-11T14:03:28.283Z,16.00
2023-01-11T14:09:00.910Z,15.54
2023-01-11T14:14:21.705Z,15.95
2023-01-11T14:19:28.716Z,15.84
2023-01-11T14:24:36.367Z,15.75
2023-01-11T14:29:52.701Z,15.78
2023-01-11T14:35:07.963Z,16.12
2023-01-11T14:40:18.928Z,16.15
2023-01-11T14:45:35.984Z,16.09
2023-01-11T14:50:47.468Z,15.91
2023-01-11T14:55:49.764Z,15.84
2023-01-11T15:00:54.827Z,15.39
2023-01-11T15:06:03.220Z,15.04
2023-01-11T15:11:23.195Z,14.56
2023-01-11T15:16:43.915Z,14.45
2023-01-11T15:21:50.959Z,14.13
2023-01-11T15:26:54.180Z,14.03
2023-01-11T15:32:02.412Z,13.78
2023-01-11T15:37:18.938Z,13.58
2023-01-11T15:42:53.280Z,13.76
2023-01-11T15:48:34.061Z,13.71
2023-01-11T15:54:01.814Z,13.60
2023-01-11T15:59:31.956Z,13.28
2023-01-11T16:04:53.633Z,13.28
2023-01-11T16:10:15.071Z,13.37
2023-01-11T16:15:25.613Z,13.26
2023-01-11T16:20:29.205Z,13.18
2023-01-11T16:25:38.688Z,13.12
2023-01-11T16:30:41.492Z,13.12
2023-01-11T16:35:43.941Z,13.20
2023-01-11T16:40:51.400Z,13.38
2023-01-11T16:45:54.839Z,13.18
2023-01-11T16:51:10.207Z,13.06
2023-01-11T16:56:22.982Z,12.97
2023-01-11T17:01:25.157Z,12.98
2023-01-11T17:06:27.269Z,12.99
2023-01-11T17:11:41.935Z,12.79
2023-01-11T17:16:47.650Z,12.66
2023-01-11T17:21:57.018Z,12.48
2023-01-11T17:27:02.314Z,12.55
2023-01-11T17:32:07.544Z,12.91
2023-01-11T17:37:15.876Z,12.75
2023-01-11T17:42:37.428Z,12.63
2023-01-11T17:47:41.864Z,12.75
2023-01-11T17:52:54.204Z,12.55
2023-01-11T17:58:11.080Z,12.84
2023-01-11T18:03:18.856Z,12.62
2023-01-11T18:08:22.808Z,12.80
2023-01-11T18:13:35.022Z,12.76
2023-01-11T18:18:42.043Z,12.73
2023-01-11T18:23:44.330Z,12.44
2023-01-11T18:28:46.434Z,12.67
2023-01-11T18:33:48.608Z,12.57
2023-01-11T18:38:50.888Z,12.17
2023-01-11T18:43:54.020Z,12.38
2023-01-11T18:48:56.236Z,12.20
2023-01-11T18:53:58.348Z,12.16
2023-01-11T18:59:00.409Z,12.26
2023-01-11T19:04:02.472Z,12.09
2023-01-11T19:09:04.719Z,11.76
2023-01-11T19:14:06.877Z,11.56
2023-01-11T19:19:09.046Z,11.67
2023-01-11T19:24:11.385Z,11.68
2023-01-11T19:29:17.570Z,11.59
2023-01-11T19:34:20.208Z,11.59
2023-01-11T19:39:22.326Z,11.36
2023-01-11T19:44:26.982Z,11.35
2023-01-11T19:49:30.270Z,11.39
2023-01-11T19:54:32.446Z,11.36
2023-01-11T19:59:34.611Z,11.23
2023-01-11T20:04:37.592Z,11.12
2023-01-11T20:09:39.839Z,11.11
2023-01-11T20:14:44.433Z,11.11
2023-01-11T20:19:47.188Z,11.03
2023-01-11T20:24:49.372Z,11.15
2023-01-11T20:29:51.441Z,10.95
2023-01-11T20:34:54.081Z,11.00
2023-01-11T20:39:56.201Z,10.87
2023-01-11T20:44:58.396Z,10.79
2023-01-11T20:50:00.527Z,10.62
2023-01-11T20:55:02.780Z,10.68
2023-01-11T21:00:06.337Z,10.68
2023-01-11T21:05:09.511Z,10.20
2023-01-11T21:10:12.135Z,10.42
2023-01-11T21:15:14.300Z,10.46
2023-01-11T21:20:17.209Z,10.26
2023-01-11T21:25:19.298Z,10.31
2023-01-11T21:30:22.958Z,10.42
2023-01-11T21:35:25.317Z,10.50
2023-01-11T21:40:27.524Z,10.33
2023-01-11T21:45:29.689Z,10.21
2023-01-11T21:50:31.801Z,10.31
2023-01-11T21:55:33.876Z,10.32
2023-01-11T22:00:36.061Z,10.42
2023-01-11T22:05:38.177Z,10.54
2023-01-11T22:10:40.291Z,10.74
2023-01-11T22:15:42.440Z,10.83
2023-01-11T22:20:44.554Z,10.66
2023-01-11T22:25:46.868Z,10.57
2023-01-11T22:30:48.958Z,10.58
2023-01-11T22:35:55.407Z,10.34
2023-01-11T22:41:00.227Z,10.31
2023-01-11T22:46:02.832Z,10.20
2023-01-11T22:51:09.273Z,10.33
2023-01-11T22:56:13.695Z,10.06
2023-01-11T23:01:17.437Z,10.33
2023-01-11T23:06:25.405Z,10.31
2023-01-11T23:11:50.096Z,10.10
2023-01-11T23:16:52.185Z,10.08
2023-01-11T23:21:54.299Z,9.81
2023-01-11T23:26:56.479Z,9.83
2023-01-11T23:31:58.983Z,9.84
2023-01-11T23:37:01.128Z,9.77
2023-01-11T23:42:22.021Z,9.66
2023-01-11T23:47:25.641Z,9.70
2023-01-11T23:52:32.536Z,9.75
2023-01-11T23:57:34.634Z,9.62
